createdAt,value
2022-10-05T00:01:30.188Z,58.54
2022-10-05T00:04:07.584Z,58.55
2022-10-05T00:06:36.671Z,58.85
2022-10-05T00:09:16.313Z,58.92
2022-10-05T00:11:45.836Z,58.72
2022-10-05T00:14:18.979Z,58.89
2022-10-05T00:16:49.241Z,58.71
2022-10-05T00:19:26.877Z,58.88
2022-10-05T00:21:58.236Z,59.54
2022-10-05T00:24:26.791Z,59.04
2022-10-05T00:26:57.965Z,59.17
2022-10-05T00:29:26.908Z,59.21
2022-10-05T00:31:55.265Z,59.40
2022-10-05T00:34:27.424Z,59.10
2022-10-05T00:36:56.038Z,59.34
2022-10-05T00:39:24.596Z,59.28
2022-10-05T00:42:11.925Z,59.56
2022-10-05T00:44:46.956Z,60.16
2022-10-05T00:47:32.006Z,60.60
2022-10-05T00:50:17.957Z,60.80
2022-10-05T00:52:55.902Z,60.93
2022-10-05T00:55:36.886Z,61.37
2022-10-05T00:58:15.979Z,61.39
2022-10-05T01:00:55.802Z,61.55
2022-10-05T01:03:32.096Z,62.00
2022-10-05T01:06:14.293Z,60.96
2022-10-05T01:08:56.830Z,60.77
2022-10-05T01:11:31.192Z,60.81
2022-10-05T01:14:14.071Z,60.23
2022-10-05T01:16:52.214Z,60.21
2022-10-05T01:19:44.449Z,59.73
2022-10-05T01:22:25.531Z,59.57
2022-10-05T01:25:07.348Z,59.63
2022-10-05T01:27:43.355Z,59.34
2022-10-05T01:30:14.714Z,59.39
2022-10-05T01:32:49.537Z,59.35
2022-10-05T01:35:32.444Z,59.12
2022-10-05T01:38:17.284Z,59.38
2022-10-05T01:40:54.252Z,59.13
2022-10-05T01:43:31.914Z,58.96
2022-10-05T01:46:15.142Z,58.86
2022-10-05T01:48:54.162Z,58.77
2022-10-05T01:51:37.436Z,58.82
2022-10-05T01:54:19.809Z,59.24
2022-10-05T01:57:00.730Z,58.94
2022-10-05T01:59:47.229Z,59.17
2022-10-05T02:02:18.811Z,58.99
2022-10-05T02:05:07.482Z,59.16
2022-10-05T02:07:41.320Z,59.14
2022-10-05T02:10:19.253Z,59.26
2022-10-05T02:12:51.684Z,59.09
2022-10-05T02:15:27.672Z,58.83
2022-10-05T02:18:03.458Z,58.88
2022-10-05T02:20:35.683Z,58.74
2022-10-05T02:23:09.136Z,58.84
2022-10-05T02:25:41.781Z,59.03
2022-10-05T02:28:16.724Z,58.75
2022-10-05T02:30:53.632Z,59.34
2022-10-05T02:33:29.162Z,59.51
2022-10-05T02:36:03.196Z,59.54
2022-10-05T02:38:42.955Z,59.33
2022-10-05T02:41:25.299Z,59.06
2022-10-05T02:44:04.090Z,59.25
2022-10-05T02:46:41.677Z,59.23
2022-10-05T02:49:23.249Z,59.34
2022-10-05T02:52:04.937Z,59.16
2022-10-05T02:54:44.841Z,59.18
2022-10-05T02:57:24.284Z,59.36
2022-10-05T03:00:04.111Z,59.44
2022-10-05T03:02:42.049Z,59.32
2022-10-05T03:05:21.632Z,59.03
2022-10-05T03:07:58.512Z,60.57
2022-10-05T03:10:33.609Z,60.50
2022-10-05T03:13:09.987Z,60.48
2022-10-05T03:15:51.487Z,61.11
2022-10-05T03:18:35.564Z,61.17
2022-10-05T03:21:16.457Z,61.01
2022-10-05T03:24:13.862Z,61.16
2022-10-05T03:26:53.909Z,61.17
2022-10-05T03:29:34.714Z,60.90
2022-10-05T03:32:17.708Z,61.01
2022-10-05T03:34:54.084Z,60.86
2022-10-05T03:37:29.188Z,60.78
2022-10-05T03:40:07.369Z,60.84
2022-10-05T03:42:47.472Z,61.02
2022-10-05T03:45:28.208Z,60.85
2022-10-05T03:48:06.563Z,60.75
2022-10-05T03:50:47.098Z,60.82
2022-10-05T03:53:20.774Z,60.92
2022-10-05T03:55:55.378Z,61.35
2022-10-05T03:58:30.067Z,61.02
2022-10-05T04:01:04.961Z,61.41
2022-10-05T04:03:37.488Z,61.31
2022-10-05T04:06:14.013Z,61.08
2022-10-05T04:08:48.457Z,61.16
2022-10-05T04:11:26.705Z,61.06
2022-10-05T04:14:01.999Z,60.93
2022-10-05T04:16:35.940Z,61.02
2022-10-05T04:19:11.788Z,60.80
2022-10-05T04:21:50.361Z,60.87
2022-10-05T04:24:29.970Z,60.97
2022-10-05T04:27:01.705Z,60.92
2022-10-05T04:29:39.268Z,60.65
2022-10-05T04:32:23.324Z,60.85
2022-10-05T04:35:04.225Z,60.77
2022-10-05T04:37:46.743Z,60.58
2022-10-05T04:40:33.662Z,60.84
2022-10-05T04:43:09.659Z,60.99
2022-10-05T04:46:06.669Z,61.44
2022-10-05T04:49:01.134Z,61.75
2022-10-05T04:51:38.341Z,61.94
2022-10-05T04:54:22.015Z,61.90
2022-10-05T04:56:56.195Z,61.73
2022-10-05T04:59:42.592Z,61.65
2022-10-05T05:02:21.128Z,61.69
2022-10-05T05:05:05.708Z,61.36
2022-10-05T05:07:43.030Z,61.32
2022-10-05T05:10:47.208Z,61.40
2022-10-05T05:13:47.133Z,61.25
2022-10-05T05:16:26.816Z,61.28
2022-10-05T05:19:23.647Z,60.89
2022-10-05T05:22:02.483Z,60.76
2022-10-05T05:24:44.855Z,60.50
2022-10-05T05:27:38.214Z,60.30
2022-10-05T05:30:19.969Z,59.88
2022-10-05T05:33:02.331Z,60.32
2022-10-05T05:35:47.114Z,60.32
2022-10-05T05:38:27.296Z,60.40
2022-10-05T05:41:08.291Z,60.17
2022-10-05T05:44:01.519Z,59.85
2022-10-05T05:47:02.484Z,59.71
2022-10-05T05:49:37.786Z,59.32
2022-10-05T05:52:15.645Z,59.50
2022-10-05T05:54:49.805Z,59.53
2022-10-05T05:57:25.450Z,59.81
2022-10-05T06:00:03.965Z,60.11
2022-10-05T06:02:49.080Z,60.19
2022-10-05T06:05:29.808Z,60.07
2022-10-05T06:08:04.394Z,59.59
2022-10-05T06:10:42.074Z,59.52
2022-10-05T06:13:20.268Z,59.35
2022-10-05T06:15:55.888Z,59.69
2022-10-05T06:18:26.868Z,59.85
2022-10-05T06:21:02.851Z,60.48
2022-10-05T06:23:44.542Z,60.32
2022-10-05T06:26:23.698Z,59.77
2022-10-05T06:28:59.141Z,60.02
2022-10-05T06:31:44.520Z,59.05
2022-10-05T06:34:35.205Z,58.81
2022-10-05T06:37:11.906Z,58.05
2022-10-05T06:40:01.284Z,57.28
2022-10-05T06:42:54.344Z,57.55
2022-10-05T06:46:03.717Z,56.98
2022-10-05T06:49:04.367Z,56.81
2022-10-05T06:51:58.219Z,56.16
2022-10-05T06:54:46.848Z,55.77
2022-10-05T06:57:36.371Z,55.42
2022-10-05T07:00:15.888Z,54.75
2022-10-05T07:02:54.455Z,55.15
2022-10-05T07:05:55.889Z,55.27
2022-10-05T07:08:35.765Z,54.66
2022-10-05T07:11:17.352Z,54.44
2022-10-05T07:14:05.793Z,54.32
2022-10-05T07:16:46.462Z,54.87
2022-10-05T07:19:36.039Z,58.04
2022-10-05T07:22:31.823Z,57.48
2022-10-05T07:25:12.207Z,57.50
2022-10-05T07:27:51.787Z,56.48
2022-10-05T07:30:21.483Z,56.54
2022-10-05T07:33:00.000Z,55.98
2022-10-05T07:35:58.363Z,55.24
2022-10-05T07:38:33.761Z,54.37
2022-10-05T07:41:09.636Z,54.34
2022-10-05T07:44:01.446Z,53.85
2022-10-05T07:46:43.207Z,52.87
2022-10-05T07:49:22.698Z,51.94
2022-10-05T07:51:57.805Z,51.98
2022-10-05T07:54:36.791Z,52.86
2022-10-05T07:57:18.847Z,52.88
2022-10-05T07:59:57.879Z,52.13
2022-10-05T08:02:30.240Z,51.65
2022-10-05T08:05:04.516Z,53.24
2022-10-05T08:07:35.998Z,52.05
2022-10-05T08:10:19.404Z,51.42
2022-10-05T08:13:01.458Z,51.64
2022-10-05T08:15:35.364Z,51.31
2022-10-05T08:18:11.973Z,52.75
2022-10-05T08:20:46.648Z,53.62
2022-10-05T08:23:28.989Z,52.61
2022-10-05T08:26:16.251Z,51.62
2022-10-05T08:28:53.029Z,52.54
2022-10-05T08:31:26.877Z,52.94
2022-10-05T08:34:03.855Z,52.49
2022-10-05T08:36:53.739Z,51.68
2022-10-05T08:39:25.815Z,52.48
2022-10-05T08:42:43.042Z,51.23
2022-10-05T08:45:40.777Z,52.64
2022-10-05T08:48:44.821Z,52.74
2022-10-05T08:51:42.495Z,51.73
2022-10-05T08:54:42.927Z,51.07
2022-10-05T08:57:33.841Z,49.81
2022-10-05T09:00:10.979Z,49.18
2022-10-05T09:03:08.077Z,47.84
2022-10-05T09:06:16.876Z,48.53
2022-10-05T09:09:21.688Z,48.75
2022-10-05T09:12:07.344Z,47.72
2022-10-05T09:15:13.614Z,47.05
2022-10-05T09:18:19.808Z,46.80
2022-10-05T09:20:53.899Z,45.88
2022-10-05T09:23:39.067Z,44.80
2022-10-05T09:26:10.405Z,44.30
2022-10-05T09:28:57.523Z,44.45
2022-10-05T09:31:52.417Z,44.90
2022-10-05T09:34:50.976Z,43.95
2022-10-05T09:37:49.361Z,43.48
2022-10-05T09:40:51.418Z,42.35
2022-10-05T09:43:56.103Z,41.69
2022-10-05T09:47:08.816Z,44.01
2022-10-05T09:50:10.832Z,43.65
2022-10-05T09:58:55.914Z,42.86
2022-10-05T10:01:54.529Z,43.17
2022-10-05T10:04:33.069Z,42.19
2022-10-05T10:07:48.677Z,42.49
2022-10-05T10:10:58.613Z,42.56
2022-10-05T10:13:55.828Z,42.55
2022-10-05T10:16:38.983Z,41.70
2022-10-05T10:19:29.236Z,43.57
2022-10-05T10:22:18.175Z,43.89
2022-10-05T10:25:08.243Z,44.01
2022-10-05T10:27:54.352Z,44.07
2022-10-05T10:30:44.066Z,43.67
2022-10-05T10:33:38.269Z,42.82
2022-10-05T10:36:17.889Z,42.69
2022-10-05T10:38:59.586Z,42.48
2022-10-05T10:41:53.640Z,41.78
2022-10-05T10:45:05.803Z,43.58
2022-10-05T10:47:48.295Z,44.34
2022-10-05T10:50:53.044Z,44.84
2022-10-05T10:53:49.494Z,43.83
2022-10-05T10:56:51.971Z,42.90
2022-10-05T11:00:04.054Z,44.21
2022-10-05T11:03:04.245Z,43.36
2022-10-05T11:06:07.598Z,42.77
2022-10-05T11:08:58.148Z,41.60
2022-10-05T11:11:59.586Z,41.39
2022-10-05T11:14:52.420Z,41.55
2022-10-05T11:17:45.730Z,42.36
2022-10-05T11:20:49.299Z,41.20
2022-10-05T11:23:46.786Z,41.60
2022-10-05T11:26:38.914Z,40.61
2022-10-05T11:29:34.852Z,39.47
2022-10-05T11:32:43.307Z,39.25
2022-10-05T11:35:42.797Z,39.35
2022-10-05T11:38:50.212Z,39.23
2022-10-05T11:41:45.261Z,38.63
2022-10-05T11:44:46.310Z,37.94
2022-10-05T11:47:23.937Z,37.77
2022-10-05T11:50:05.589Z,37.19
2022-10-05T11:52:43.796Z,37.49
2022-10-05T11:55:24.191Z,37.21
2022-10-05T11:57:57.325Z,36.95
2022-10-05T12:00:31.828Z,36.97
2022-10-05T12:03:42.673Z,36.36
2022-10-05T12:06:27.155Z,36.16
2022-10-05T12:09:08.683Z,35.81
2022-10-05T12:11:57.684Z,36.28
2022-10-05T12:14:41.755Z,36.28
2022-10-05T12:17:23.970Z,35.77
2022-10-05T12:19:57.914Z,35.77
2022-10-05T12:22:32.993Z,35.48
2022-10-05T12:25:17.595Z,35.39
2022-10-05T12:27:48.127Z,35.90
2022-10-05T12:30:20.200Z,35.73
2022-10-05T12:33:02.228Z,36.20
2022-10-05T12:35:47.966Z,35.91
2022-10-05T12:38:28.558Z,36.11
2022-10-05T12:41:10.793Z,36.74
2022-10-05T12:43:48.087Z,37.20
2022-10-05T12:46:26.844Z,37.19
2022-10-05T12:49:19.587Z,37.28
2022-10-05T12:51:57.061Z,38.01
2022-10-05T12:54:38.745Z,37.89
2022-10-05T12:57:16.646Z,37.51
2022-10-05T12:59:53.792Z,37.23
2022-10-05T13:02:39.059Z,37.10
2022-10-05T13:05:22.533Z,37.11
2022-10-05T13:08:01.504Z,37.19
2022-10-05T13:10:36.430Z,36.90
2022-10-05T13:13:28.682Z,37.58
2022-10-05T13:16:04.379Z,37.40
2022-10-05T13:18:49.863Z,37.31
2022-10-05T13:21:24.811Z,36.86
2022-10-05T13:24:00.043Z,37.19
2022-10-05T13:26:36.029Z,36.97
2022-10-05T13:29:17.853Z,36.88
2022-10-05T13:31:49.283Z,37.04
2022-10-05T13:34:26.867Z,36.71
2022-10-05T13:37:07.098Z,36.74
2022-10-05T13:39:51.441Z,36.65
2022-10-05T13:42:26.880Z,36.99
2022-10-05T13:45:01.807Z,36.96
2022-10-05T13:47:35.447Z,36.46
2022-10-05T13:50:15.540Z,36.51
2022-10-05T13:52:57.399Z,36.70
2022-10-05T13:55:38.901Z,37.20
2022-10-05T13:58:16.273Z,37.07
2022-10-05T14:00:52.058Z,37.08
2022-10-05T14:03:31.036Z,37.00
2022-10-05T14:06:01.556Z,37.16
2022-10-05T14:08:33.263Z,37.01
2022-10-05T14:11:23.257Z,36.60
2022-10-05T14:13:53.150Z,36.95
2022-10-05T14:16:25.642Z,37.34
2022-10-05T14:18:57.691Z,37.37
2022-10-05T14:21:29.916Z,37.34
2022-10-05T14:24:32.064Z,38.04
2022-10-05T14:27:21.542Z,38.26
2022-10-05T14:29:57.378Z,38.22
2022-10-05T14:32:31.096Z,39.04
2022-10-05T14:35:15.420Z,39.04
2022-10-05T14:37:47.907Z,38.87
2022-10-05T14:40:28.405Z,38.80
2022-10-05T14:42:57.693Z,38.73
2022-10-05T14:45:29.934Z,38.91
2022-10-05T14:48:11.364Z,38.45
2022-10-05T14:50:54.986Z,38.71
2022-10-05T14:53:26.220Z,38.38
2022-10-05T14:56:32.248Z,38.55
2022-10-05T14:59:28.423Z,38.52
2022-10-05T15:02:15.769Z,38.45
2022-10-05T15:04:54.344Z,38.52
2022-10-05T15:07:29.508Z,38.84
2022-10-05T15:10:18.952Z,38.83
2022-10-05T15:12:48.674Z,38.92
2022-10-05T15:15:27.040Z,38.83
2022-10-05T15:18:01.560Z,39.45
2022-10-05T15:20:41.597Z,39.39
2022-10-05T15:23:24.552Z,39.73
2022-10-05T15:26:06.052Z,39.75
2022-10-05T15:28:42.299Z,39.75
2022-10-05T15:31:25.059Z,39.95
2022-10-05T15:34:01.715Z,40.15
2022-10-05T15:36:41.519Z,40.10
2022-10-05T15:39:20.227Z,40.17
2022-10-05T15:42:00.417Z,40.32
2022-10-05T15:44:45.418Z,40.52
2022-10-05T15:47:20.354Z,40.56
2022-10-05T15:50:00.123Z,40.95
2022-10-05T15:52:37.189Z,40.78
2022-10-05T15:55:36.258Z,41.07
2022-10-05T15:58:23.660Z,41.45
2022-10-05T16:00:58.815Z,41.96
2022-10-05T16:03:42.619Z,41.96
2022-10-05T16:06:37.713Z,41.99
2022-10-05T16:09:24.531Z,41.89
2022-10-05T16:12:02.590Z,42.26
2022-10-05T16:14:43.100Z,42.58
2022-10-05T16:17:25.274Z,42.64
2022-10-05T16:20:07.912Z,42.70
2022-10-05T16:22:45.443Z,42.77
2022-10-05T16:25:23.390Z,43.10
2022-10-05T16:28:07.347Z,43.10
2022-10-05T16:30:51.072Z,43.07
2022-10-05T16:33:27.022Z,43.62
2022-10-05T16:36:10.585Z,43.38
2022-10-05T16:38:47.300Z,43.54
2022-10-05T16:41:28.032Z,43.78
2022-10-05T16:44:10.512Z,43.99
2022-10-05T16:46:51.360Z,44.28
2022-10-05T16:49:32.764Z,44.33
2022-10-05T16:52:04.882Z,44.72
2022-10-05T16:54:38.031Z,44.86
2022-10-05T16:57:14.687Z,44.82
2022-10-05T17:00:03.939Z,44.76
2022-10-05T17:03:03.703Z,45.10
2022-10-05T17:05:47.863Z,45.40
2022-10-05T17:08:39.491Z,45.51
2022-10-05T17:11:22.737Z,45.67
2022-10-05T17:14:23.610Z,45.52
2022-10-05T17:17:16.060Z,45.61
2022-10-05T17:20:00.360Z,45.78
2022-10-05T17:22:34.278Z,45.98
2022-10-05T17:25:13.688Z,46.23
2022-10-05T17:27:52.289Z,46.15
2022-10-05T17:30:49.144Z,45.92
2022-10-05T17:33:25.377Z,46.37
2022-10-05T17:36:12.835Z,46.43
2022-10-05T17:38:49.737Z,46.67
2022-10-05T17:41:24.623Z,47.34
2022-10-05T17:44:24.453Z,47.06
2022-10-05T17:47:03.907Z,47.47
2022-10-05T17:50:14.593Z,47.37
2022-10-05T17:53:02.456Z,47.71
2022-10-05T17:55:47.511Z,47.63
2022-10-05T17:59:02.093Z,47.35
2022-10-05T18:01:34.455Z,47.46
2022-10-05T18:04:38.839Z,47.38
2022-10-05T18:07:20.809Z,47.14
2022-10-05T18:09:58.499Z,47.53
2022-10-05T18:12:55.606Z,47.73
2022-10-05T18:15:46.163Z,47.90
2022-10-05T18:18:36.586Z,47.67
2022-10-05T18:21:39.018Z,47.88
2022-10-05T18:24:34.425Z,47.74
2022-10-05T18:27:25.487Z,47.64
2022-10-05T18:30:05.712Z,47.68
2022-10-05T18:33:05.454Z,47.71
2022-10-05T18:35:48.652Z,47.84
2022-10-05T18:38:33.258Z,47.88
2022-10-05T18:41:09.049Z,47.68
2022-10-05T18:43:44.732Z,47.78
2022-10-05T18:46:24.750Z,47.51
2022-10-05T18:49:05.901Z,47.38
2022-10-05T18:51:51.710Z,47.07
2022-10-05T18:54:48.505Z,47.00
2022-10-05T18:57:50.761Z,46.76
2022-10-05T19:00:22.152Z,47.15
2022-10-05T19:02:54.491Z,47.32
2022-10-05T19:05:48.119Z,47.35
2022-10-05T19:08:29.797Z,47.54
2022-10-05T19:11:09.206Z,47.47
2022-10-05T19:13:47.875Z,47.47
2022-10-05T19:16:31.862Z,47.56
2022-10-05T19:19:43.889Z,47.67
2022-10-05T19:22:26.121Z,47.50
2022-10-05T19:25:22.808Z,47.59
2022-10-05T19:28:03.577Z,47.80
2022-10-05T19:30:46.268Z,48.12
2022-10-05T19:33:28.598Z,48.03
2022-10-05T19:36:10.289Z,48.23
2022-10-05T19:38:52.745Z,48.16
2022-10-05T19:41:31.202Z,48.68
2022-10-05T19:44:14.879Z,48.42
2022-10-05T19:47:01.004Z,48.60
2022-10-05T19:49:49.103Z,48.59
2022-10-05T19:52:26.694Z,48.93
2022-10-05T19:55:13.903Z,48.87
2022-10-05T19:57:49.721Z,48.86
2022-10-05T20:00:24.810Z,49.28
2022-10-05T20:03:09.013Z,49.50
2022-10-05T20:05:37.809Z,49.30
2022-10-05T20:08:06.424Z,49.65
2022-10-05T20:10:35.531Z,49.85
2022-10-05T20:13:08.615Z,49.66
2022-10-05T20:15:56.251Z,49.57
2022-10-05T20:19:06.105Z,49.37
2022-10-05T20:21:45.069Z,49.50
2022-10-05T20:24:15.584Z,49.52
2022-10-05T20:27:06.104Z,49.62
2022-10-05T20:29:37.089Z,49.51
2022-10-05T20:32:10.046Z,49.23
2022-10-05T20:34:41.403Z,49.39
2022-10-05T20:37:11.482Z,49.37
2022-10-05T20:39:41.012Z,49.53
2022-10-05T20:42:10.288Z,49.49
2022-10-05T20:44:39.334Z,49.58
2022-10-05T20:47:10.337Z,49.27
2022-10-05T20:49:41.208Z,49.09
2022-10-05T20:52:12.259Z,49.02
2022-10-05T20:54:40.834Z,48.79
2022-10-05T20:57:10.142Z,48.81
2022-10-05T20:59:38.553Z,48.94
2022-10-05T21:02:08.718Z,48.47
2022-10-05T21:04:41.624Z,48.44
2022-10-05T21:07:10.632Z,48.43
2022-10-05T21:09:40.940Z,48.19
2022-10-05T21:12:09.408Z,48.32
2022-10-05T21:14:38.530Z,48.38
2022-10-05T21:17:09.444Z,48.55
2022-10-05T21:19:39.513Z,48.83
2022-10-05T21:22:08.544Z,48.51
2022-10-05T21:24:37.962Z,48.58
2022-10-05T21:27:06.775Z,48.43
2022-10-05T21:29:37.059Z,48.72
2022-10-05T21:32:08.716Z,48.65
2022-10-05T21:34:39.216Z,48.60
2022-10-05T21:37:08.083Z,48.79
2022-10-05T21:39:36.782Z,48.71
2022-10-05T21:42:05.704Z,48.85
2022-10-05T21:44:34.069Z,48.94
2022-10-05T21:47:04.317Z,49.09
2022-10-05T21:49:33.093Z,49.13
2022-10-05T21:52:05.567Z,49.25
2022-10-05T21:54:35.112Z,49.26
2022-10-05T21:57:04.239Z,49.52
2022-10-05T21:59:35.631Z,49.33
2022-10-05T22:02:04.420Z,49.32
2022-10-05T22:04:32.721Z,49.33
2022-10-05T22:07:02.423Z,49.48
2022-10-05T22:09:31.067Z,49.36
2022-10-05T22:12:00.112Z,49.11
2022-10-05T22:14:28.679Z,48.95
2022-10-05T22:16:57.263Z,49.15
2022-10-05T22:19:25.700Z,49.05
2022-10-05T22:21:54.055Z,48.94
2022-10-05T22:24:24.034Z,49.07
2022-10-05T22:26:52.841Z,49.47
2022-10-05T22:29:21.982Z,49.25
2022-10-05T22:31:50.623Z,48.91
2022-10-05T22:34:19.338Z,49.26
2022-10-05T22:36:48.444Z,49.09
2022-10-05T22:39:17.876Z,49.05
2022-10-05T22:41:47.867Z,48.71
2022-10-05T22:44:16.437Z,48.66
2022-10-05T22:46:45.069Z,48.73
2022-10-05T22:49:13.485Z,48.58
2022-10-05T22:51:41.898Z,49.08
2022-10-05T22:54:10.660Z,48.49
2022-10-05T22:56:38.974Z,48.60
2022-10-05T22:59:08.676Z,48.67
2022-10-05T23:01:37.311Z,48.67
2022-10-05T23:04:05.668Z,48.64
2022-10-05T23:06:33.998Z,48.16
2022-10-05T23:09:02.615Z,48.09
2022-10-05T23:11:31.425Z,48.20
2022-10-05T23:14:00.383Z,48.17
2022-10-05T23:16:30.463Z,48.57
2022-10-05T23:19:00.143Z,48.60
2022-10-05T23:21:30.549Z,48.36
2022-10-05T23:23:59.108Z,48.34
2022-10-05T23:26:27.882Z,48.35
2022-10-05T23:28:56.296Z,48.64
2022-10-05T23:31:28.027Z,48.51
2022-10-05T23:33:57.898Z,48.80
2022-10-05T23:36:28.320Z,48.53
2022-10-05T23:38:56.797Z,48.56
2022-10-05T23:41:25.949Z,48.47
2022-10-05T23:43:55.918Z,48.28
2022-10-05T23:46:24.570Z,48.29
2022-10-05T23:48:53.281Z,48.31
2022-10-05T23:51:23.325Z,48.15
2022-10-05T23:53:51.757Z,47.81
2022-10-05T23:56:20.030Z,47.96
2022-10-05T23:58:48.623Z,47.99
